createdAt,value
2022-12-22T08:37:15.314Z,7.90
2022-12-22T08:39:48.511Z,9.15
2022-12-22T09:13:46.703Z,8.10
2022-12-22T09:25:31.908Z,6.45
2022-12-22T09:30:40.490Z,6.88
2022-12-22T09:36:14.405Z,7.82
2022-12-22T09:41:40.421Z,6.95
2022-12-22T09:44:12.868Z,7.95
2022-12-22T09:46:41.047Z,7.93
2022-12-22T09:49:07.716Z,7.82
2022-12-22T09:51:39.491Z,7.13
2022-12-22T09:54:08.108Z,7.45
2022-12-22T09:56:34.587Z,7.70
2022-12-22T09:59:01.116Z,7.30
2022-12-22T10:01:30.838Z,7.97
2022-12-22T10:04:13.854Z,8.38
2022-12-22T10:06:59.590Z,7.97
2022-12-22T10:09:49.512Z,8.00
2022-12-22T10:12:17.613Z,7.95
2022-12-22T10:14:48.601Z,8.63
2022-12-22T10:17:18.158Z,9.23
2022-12-22T10:19:45.808Z,8.38
2022-12-22T10:22:32.941Z,8.93
2022-12-22T10:25:01.367Z,7.63
2022-12-22T10:27:31.019Z,8.60
2022-12-22T10:30:31.679Z,7.82
2022-12-22T10:33:14.903Z,8.25
2022-12-22T10:35:41.552Z,8.75
2022-12-22T10:38:31.710Z,8.55
2022-12-22T10:41:02.627Z,8.55
2022-12-22T10:43:31.615Z,8.93
2022-12-22T10:46:24.807Z,8.48
2022-12-22T10:48:51.795Z,7.88
2022-12-22T10:51:25.045Z,8.55
2022-12-22T10:53:54.122Z,8.75
2022-12-22T10:56:23.639Z,7.72
2022-12-22T10:58:51.787Z,8.90
2022-12-22T11:01:25.947Z,8.43
2022-12-22T11:03:54.770Z,10.02
2022-12-22T11:06:21.466Z,8.75
2022-12-22T11:08:51.661Z,9.85
2022-12-22T11:11:39.362Z,8.48
2022-12-22T11:14:13.873Z,9.40
2022-12-22T11:16:44.126Z,9.20
2022-12-22T11:19:23.365Z,9.73
2022-12-22T11:21:54.503Z,9.90
2022-12-22T11:24:27.341Z,10.18
2022-12-22T11:27:12.572Z,10.48
2022-12-22T11:29:57.801Z,9.57
2022-12-22T11:32:31.093Z,10.07
2022-12-22T11:35:20.610Z,8.85
2022-12-22T11:37:47.329Z,8.00
2022-12-22T11:40:32.570Z,9.52
2022-12-22T11:43:31.477Z,9.05
2022-12-22T12:59:51.157Z,6.60
2022-12-22T13:19:24.522Z,7.93
2022-12-22T13:21:53.575Z,6.65
2022-12-22T13:24:26.010Z,7.80
2022-12-22T13:26:57.053Z,7.95
2022-12-22T13:29:40.229Z,7.47
2022-12-22T13:32:19.350Z,7.60
2022-12-22T13:38:08.945Z,7.15
2022-12-22T13:40:45.182Z,7.57
2022-12-22T13:43:13.968Z,6.28
2022-12-22T13:45:45.308Z,7.57
2022-12-22T13:48:23.637Z,7.22
2022-12-22T13:50:54.563Z,6.38
2022-12-22T13:56:16.828Z,6.72
2022-12-22T13:58:46.978Z,6.32
2022-12-22T14:01:19.284Z,7.10
2022-12-22T14:04:00.291Z,7.47
2022-12-22T14:06:40.039Z,7.03
2022-12-22T14:09:20.921Z,8.13
2022-12-22T14:11:53.289Z,7.32
2022-12-22T14:14:21.708Z,8.15
2022-12-22T14:16:50.007Z,7.70
2022-12-22T14:19:17.654Z,7.03
2022-12-22T14:21:48.959Z,7.85
2022-12-22T14:24:32.087Z,7.80
2022-12-22T14:27:02.008Z,7.80
2022-12-22T14:29:34.264Z,8.38
2022-12-22T14:32:05.508Z,9.02
2022-12-22T14:34:35.422Z,8.10
2022-12-22T14:37:02.645Z,9.75
2022-12-22T14:39:36.917Z,10.27
2022-12-22T16:06:18.031Z,6.82
2022-12-22T16:08:50.104Z,5.88
2022-12-22T16:11:22.447Z,5.90
2022-12-22T16:13:49.830Z,5.43
2022-12-22T16:16:19.185Z,5.60
2022-12-22T16:18:46.868Z,6.47
2022-12-22T16:24:00.638Z,5.60
2022-12-22T16:26:29.546Z,6.30
2022-12-22T16:40:46.176Z,6.20
2022-12-22T16:44:09.354Z,4.63
2022-12-22T17:12:01.857Z,4.20
2022-12-22T17:17:18.004Z,4.43
2022-12-22T17:19:47.723Z,3.92
2022-12-22T17:25:08.134Z,4.40
2022-12-22T17:27:35.088Z,4.25
2022-12-22T17:30:30.661Z,4.78
2022-12-22T17:32:59.716Z,4.38
2022-12-22T17:35:29.018Z,3.97
2022-12-22T17:37:55.740Z,4.40
2022-12-22T17:40:32.316Z,4.45
2022-12-22T17:45:42.079Z,3.70
2022-12-22T17:48:08.841Z,4.97
2022-12-22T17:50:42.368Z,4.50
2022-12-22T18:23:36.852Z,5.53
2022-12-22T18:26:25.490Z,4.40
2022-12-22T18:29:04.429Z,3.50
2022-12-22T18:31:34.322Z,5.28
2022-12-22T18:34:02.631Z,3.60
2022-12-22T18:36:31.767Z,3.42
2022-12-22T18:39:01.800Z,3.65
2022-12-22T18:41:30.694Z,3.37
2022-12-22T18:44:02.747Z,3.22
2022-12-22T18:46:29.413Z,4.28
2022-12-22T18:49:01.798Z,3.78
2022-12-22T19:44:52.791Z,4.10
2022-12-22T19:47:26.845Z,2.95
2022-12-22T19:49:53.567Z,3.75
2022-12-22T19:52:21.840Z,2.78
2022-12-22T21:10:03.114Z,1.70
2022-12-22T21:12:29.925Z,1.50
2022-12-22T21:52:29.040Z,1.52
2022-12-22T21:55:08.829Z,1.60
2022-12-22T22:34:21.294Z,1.10
2022-12-22T22:51:02.157Z,0.65
2022-12-22T22:53:28.712Z,1.00
2022-12-22T22:55:55.332Z,0.80
2022-12-22T22:58:33.444Z,0.90
2022-12-22T23:01:07.644Z,1.02
2022-12-22T23:03:34.783Z,0.93
2022-12-22T23:06:05.178Z,1.23
2022-12-22T23:08:33.425Z,1.02
2022-12-22T23:11:02.471Z,1.00
2022-12-22T23:13:28.974Z,1.00
2022-12-22T23:15:55.584Z,0.90
2022-12-22T23:18:22.679Z,0.73
2022-12-22T23:20:49.217Z,0.90
2022-12-22T23:23:16.168Z,0.75
2022-12-22T23:25:43.300Z,0.90
2022-12-22T23:28:09.954Z,0.80
2022-12-22T23:30:39.999Z,0.80
2022-12-22T23:33:06.614Z,0.80
2022-12-22T23:35:35.944Z,0.85
2022-12-22T23:38:02.665Z,0.90
2022-12-22T23:43:16.429Z,0.90
2022-12-22T23:45:43.028Z,0.90
2022-12-22T23:48:09.694Z,1.10
2022-12-22T23:50:36.270Z,0.80
2022-12-22T23:53:02.894Z,1.20
2022-12-22T23:55:30.819Z,1.00
2022-12-22T23:57:59.617Z,0.98
